Time;durP1;ratioP1;P1;durP2;ratioP2;P2;SDS_P1;SDS_P2;PMS_P1;PMS_P2;Temp;Humidity;BMP_temperature;BMP_pressure;BME280_temperature;BME280_humidity;BME280_pressure;Samples;Min_cycle;Max_cycle;Signal;HPM_P1;HPM_P2
2022/11/22 00:00:26;;;;;;;4.70;2.20;;;;;;;3.97;100.00;93828.94;5122283;27;24440;-71
2022/11/22 00:02:53;;;;;;;6.05;2.30;;;;;;;3.98;100.00;93828.03;5123846;27;24435;-71
2022/11/22 00:05:19;;;;;;;6.53;2.38;;;;;;;4.02;100.00;93819.22;5117812;27;24445;-72
2022/11/22 00:07:47;;;;;;;6.10;2.33;;;;;;;4.04;100.00;93832.72;5119611;27;24429;-72
2022/11/22 00:10:14;;;;;;;4.07;2.20;;;;;;;4.05;100.00;93822.38;5122100;27;24449;-72
2022/11/22 00:12:41;;;;;;;4.63;2.20;;;;;;;4.09;100.00;93817.88;5117395;27;24435;-72
2022/11/22 00:15:09;;;;;;;5.60;2.72;;;;;;;4.08;100.00;93811.94;5108706;27;24441;-72
2022/11/22 00:17:36;;;;;;;5.85;2.40;;;;;;;4.03;100.00;93813.16;5119686;27;24995;-72
2022/11/22 00:20:04;;;;;;;4.07;2.63;;;;;;;3.99;100.00;93827.09;5111479;27;24796;-72
2022/11/22 00:22:30;;;;;;;4.77;2.37;;;;;;;3.95;100.00;93823.94;5111040;27;24498;-72
2022/11/22 00:24:58;;;;;;;5.00;2.60;;;;;;;3.90;100.00;93814.94;5113850;27;24437;-72
2022/11/22 00:27:25;;;;;;;5.10;2.60;;;;;;;3.91;100.00;93819.13;5122113;27;24451;-72
2022/11/22 00:29:52;;;;;;;6.93;3.20;;;;;;;3.84;100.00;93818.72;5114198;27;24445;-71
2022/11/22 00:32:18;;;;;;;5.70;3.20;;;;;;;3.93;100.00;93823.25;5125623;27;24436;-71
2022/11/22 00:34:45;;;;;;;4.85;2.50;;;;;;;3.88;100.00;93825.28;5120174;27;24559;-72
2022/11/22 00:37:11;;;;;;;4.68;2.70;;;;;;;3.93;100.00;93828.34;5113881;27;24439;-71
2022/11/22 00:39:38;;;;;;;3.55;2.05;;;;;;;3.99;100.00;93827.94;5123874;27;24436;-71
2022/11/22 00:42:06;;;;;;;3.25;2.25;;;;;;;4.02;100.00;93837.97;5126643;27;24994;-71
2022/11/22 00:44:33;;;;;;;3.95;2.25;;;;;;;4.03;100.00;93839.59;5108637;27;24433;-71
2022/11/22 00:46:59;;;;;;;4.32;2.20;;;;;;;4.08;100.00;93845.25;5127408;27;24792;-71
2022/11/22 00:49:26;;;;;;;3.83;2.13;;;;;;;4.06;100.00;93862.44;5112499;27;24461;-72
2022/11/22 00:51:52;;;;;;;4.55;2.13;;;;;;;4.03;100.00;93870.34;5108782;28;24438;-72
2022/11/22 00:54:19;;;;;;;5.78;2.03;;;;;;;4.04;100.00;93871.16;5114401;27;24800;-72
2022/11/22 00:56:45;;;;;;;3.50;2.20;;;;;;;3.96;100.00;93869.09;5108827;27;24433;-72
2022/11/22 00:59:13;;;;;;;6.73;2.20;;;;;;;3.99;100.00;93873.22;5118120;27;24430;-72
2022/11/22 01:01:40;;;;;;;3.55;2.03;;;;;;;3.97;100.00;93869.91;5120254;27;24437;-72
2022/11/22 01:04:06;;;;;;;4.90;2.22;;;;;;;3.98;100.00;93876.69;5119191;27;24425;-72
2022/11/22 01:06:33;;;;;;;5.03;2.35;;;;;;;4.00;100.00;93878.22;5113060;27;24990;-71
2022/11/22 01:08:59;;;;;;;4.70;2.03;;;;;;;3.96;100.00;93879.34;5117137;27;24436;-73
2022/11/22 01:11:26;;;;;;;4.90;1.90;;;;;;;3.97;100.00;93880.16;5117446;27;24484;-72
2022/11/22 01:13:53;;;;;;;4.15;2.08;;;;;;;3.97;100.00;93888.69;5119110;27;24544;-72
2022/11/22 01:16:21;;;;;;;7.38;2.45;;;;;;;3.97;100.00;93881.00;5110066;27;24449;-72
2022/11/22 01:18:47;;;;;;;4.15;2.17;;;;;;;3.96;100.00;93870.84;5112675;27;24436;-72
2022/11/22 01:21:14;;;;;;;5.63;2.57;;;;;;;3.93;100.00;93877.03;5116722;27;24681;-72
2022/11/22 01:23:40;;;;;;;4.27;2.20;;;;;;;3.99;100.00;93889.41;5121482;27;25028;-72
2022/11/22 01:26:08;;;;;;;6.88;1.80;;;;;;;4.00;100.00;93885.09;5115886;27;24450;-72
2022/11/22 01:28:35;;;;;;;3.05;1.83;;;;;;;4.04;100.00;93891.63;5121348;27;24441;-72
2022/11/22 01:31:01;;;;;;;4.33;2.40;;;;;;;4.00;100.00;93896.16;5109891;27;24433;-72
2022/11/22 01:33:29;;;;;;;5.27;2.77;;;;;;;3.96;100.00;93907.53;5117219;27;24432;-72
2022/11/22 01:35:57;;;;;;;3.92;2.40;;;;;;;3.96;100.00;93902.41;5122280;27;24432;-72
2022/11/22 01:38:23;;;;;;;3.45;2.20;;;;;;;3.98;100.00;93890.31;5112090;27;24525;-72
2022/11/22 01:40:50;;;;;;;3.90;2.10;;;;;;;4.08;100.00;93900.78;5116538;27;24433;-72
2022/11/22 01:43:18;;;;;;;4.75;2.40;;;;;;;4.06;100.00;93900.88;5117153;27;25017;-72
2022/11/22 01:45:49;;;;;;;5.40;2.50;;;;;;;4.09;100.00;93910.91;5118262;27;25037;-72
2022/11/22 01:48:37;;;;;;;4.32;2.45;;;;;;;4.02;100.00;93912.25;5115341;27;24516;-72
2022/11/22 01:51:12;;;;;;;4.80;2.30;;;;;;;4.02;100.00;93921.69;5113303;27;24537;-72
2022/11/22 01:53:39;;;;;;;4.20;2.10;;;;;;;3.97;100.00;93921.16;5121644;27;24440;-72
2022/11/22 01:56:10;;;;;;;4.30;1.97;;;;;;;3.92;100.00;93911.22;5120539;27;24520;-72
2022/11/22 01:58:38;;;;;;;4.93;2.42;;;;;;;3.94;100.00;93922.19;5108972;27;24433;-72
2022/11/22 02:01:06;;;;;;;4.30;2.20;;;;;;;3.93;100.00;93918.00;5115166;27;24450;-72
2022/11/22 02:03:36;;;;;;;3.55;1.92;;;;;;;3.94;100.00;93914.50;5118974;27;24440;-72
2022/11/22 02:06:04;;;;;;;5.45;2.55;;;;;;;3.91;100.00;93912.16;5115976;27;24456;-72
2022/11/22 02:08:37;;;;;;;4.20;1.92;;;;;;;3.92;100.00;93907.84;5093506;27;24469;-72
2022/11/22 02:11:04;;;;;;;2.75;1.88;;;;;;;3.92;100.00;93913.78;5112088;27;24449;-72
2022/11/22 02:13:37;;;;;;;5.10;2.28;;;;;;;3.88;100.00;93917.47;5117811;27;24834;-72
2022/11/22 02:16:04;;;;;;;4.82;2.25;;;;;;;3.88;100.00;93909.78;5119862;27;24445;-72
2022/11/22 02:18:33;;;;;;;3.70;2.37;;;;;;;3.91;100.00;93917.25;5106622;27;24509;-72
2022/11/22 02:21:02;;;;;;;3.72;1.98;;;;;;;3.96;100.00;93915.22;5117503;27;24438;-72
2022/11/22 02:23:36;;;;;;;5.78;2.47;;;;;;;3.91;100.00;93909.59;5109052;27;24807;-71
2022/11/22 02:26:04;;;;;;;5.57;2.55;;;;;;;3.91;100.00;93914.72;5114914;27;24441;-72
2022/11/22 02:28:34;;;;;;;5.13;2.70;;;;;;;3.90;100.00;93922.50;5097768;27;24440;-72
2022/11/22 02:31:01;;;;;;;5.70;2.53;;;;;;;3.87;100.00;93920.97;5110269;27;24461;-72
2022/11/22 02:33:27;;;;;;;3.83;2.10;;;;;;;3.88;100.00;93927.72;5113106;27;24437;-72
2022/11/22 02:35:55;;;;;;;3.45;2.10;;;;;;;3.84;100.00;93936.53;5105173;27;24430;-72
2022/11/22 02:38:23;;;;;;;5.33;2.27;;;;;;;3.90;100.00;93941.25;5124131;27;24507;-72
2022/11/22 02:40:54;;;;;;;4.15;1.83;;;;;;;3.95;100.00;93928.94;5112206;27;25048;-72
2022/11/22 02:43:27;;;;;;;3.43;2.13;;;;;;;3.89;100.00;93939.59;5114478;27;24971;-72
2022/11/22 02:45:54;;;;;;;3.35;2.00;;;;;;;3.89;100.00;93934.47;5113661;27;24998;-72
2022/11/22 02:48:20;;;;;;;3.60;1.98;;;;;;;3.85;100.00;93936.41;5110662;27;24433;-72
2022/11/22 02:50:47;;;;;;;3.88;1.80;;;;;;;3.91;100.00;93937.75;5113775;28;24438;-72
2022/11/22 02:53:14;;;;;;;2.30;1.63;;;;;;;3.89;100.00;93944.72;5121479;28;24520;-72
2022/11/22 02:55:41;;;;;;;3.85;1.88;;;;;;;3.91;100.00;93949.75;5116486;28;24438;-71
2022/11/22 02:58:07;;;;;;;2.90;1.65;;;;;;;3.97;100.00;93952.72;5119789;28;24433;-71
2022/11/22 03:00:37;;;;;;;2.28;1.42;;;;;;;3.95;100.00;93957.13;5115765;28;24437;-71
2022/11/22 03:03:03;;;;;;;5.00;1.77;;;;;;;4.03;100.00;93962.56;5118928;28;24823;-72
2022/11/22 03:05:30;;;;;;;3.30;1.80;;;;;;;4.03;100.00;93956.59;5109937;28;24440;-72
2022/11/22 03:07:56;;;;;;;2.22;1.50;;;;;;;4.05;100.00;93957.34;5110741;28;24461;-72
2022/11/22 03:10:23;;;;;;;10.57;1.70;;;;;;;4.07;100.00;93951.19;5116051;28;24435;-72
2022/11/22 03:12:49;;;;;;;3.47;1.70;;;;;;;4.08;100.00;93960.53;5112027;28;24981;-72
2022/11/22 03:15:16;;;;;;;2.55;1.35;;;;;;;4.10;100.00;93960.41;5118932;28;24811;-72
2022/11/22 03:17:44;;;;;;;4.70;1.83;;;;;;;4.10;100.00;93965.53;5118678;28;24432;-72
2022/11/22 03:20:11;;;;;;;3.55;1.60;;;;;;;3.97;100.00;93970.66;5121618;27;24464;-72
2022/11/22 03:22:37;;;;;;;2.00;1.30;;;;;;;3.98;100.00;93979.97;5107891;27;24998;-72
2022/11/22 03:25:05;;;;;;;3.28;1.45;;;;;;;3.95;100.00;93974.22;5126330;27;24440;-72
2022/11/22 03:27:31;;;;;;;4.30;1.70;;;;;;;3.87;100.00;93982.41;5119461;27;25013;-72
2022/11/22 03:29:58;;;;;;;3.50;1.42;;;;;;;3.81;100.00;93978.50;5125003;27;24787;-72
2022/11/22 03:32:24;;;;;;;3.35;1.50;;;;;;;3.83;100.00;93976.69;5117029;27;24441;-71
2022/11/22 03:34:52;;;;;;;4.50;1.48;;;;;;;3.89;100.00;93975.44;5115315;27;24967;-72
2022/11/22 03:37:18;;;;;;;3.50;1.80;;;;;;;3.86;100.00;93984.16;5118101;27;24434;-72
2022/11/22 03:39:45;;;;;;;3.60;1.70;;;;;;;3.84;100.00;93987.72;5112789;27;24479;-72
2022/11/22 03:42:12;;;;;;;3.50;1.60;;;;;;;3.79;100.00;93989.78;5114582;27;25006;-72
2022/11/22 03:44:38;;;;;;;3.35;1.30;;;;;;;3.73;100.00;93985.06;5121257;27;24807;-72
2022/11/22 03:47:05;;;;;;;3.95;1.90;;;;;;;3.74;100.00;93979.00;5106640;27;24452;-72
2022/11/22 03:49:31;;;;;;;3.63;1.60;;;;;;;3.81;100.00;93972.56;5122880;27;24444;-72
2022/11/22 03:51:59;;;;;;;3.10;1.45;;;;;;;3.77;100.00;93977.06;5115728;27;24448;-72
2022/11/22 03:54:26;;;;;;;4.78;1.50;;;;;;;3.68;100.00;93980.22;5120660;27;24436;-72
2022/11/22 03:56:52;;;;;;;5.60;1.70;;;;;;;3.68;100.00;93979.41;5110052;27;24436;-72
2022/11/22 03:59:19;;;;;;;5.53;2.42;;;;;;;3.54;100.00;93990.53;5122620;27;24444;-72
2022/11/22 04:01:45;;;;;;;4.05;1.70;;;;;;;3.53;100.00;93991.47;5113361;27;24500;-72
2022/11/22 04:04:12;;;;;;;5.28;1.95;;;;;;;3.51;100.00;93996.66;5118342;27;24430;-72
2022/11/22 04:06:38;;;;;;;4.93;1.60;;;;;;;3.49;100.00;94001.06;5117773;27;25328;-72
2022/11/22 04:09:06;;;;;;;3.67;2.00;;;;;;;3.51;100.00;93990.72;5117751;27;25066;-72
2022/11/22 04:11:33;;;;;;;5.20;2.72;;;;;;;3.61;100.00;93990.03;5115802;27;24792;-72
2022/11/22 04:16:44;;;;;;;5.28;2.50;;;;;;;3.58;100.00;93985.09;5118020;27;24463;-72
2022/11/22 04:19:10;;;;;;;2.88;2.10;;;;;;;3.62;100.00;93981.44;5124626;27;24441;-72
2022/11/22 04:21:36;;;;;;;2.60;1.80;;;;;;;3.53;100.00;93986.34;5115330;27;24459;-72
2022/11/22 04:26:49;;;;;;;2.38;1.70;;;;;;;3.58;100.00;93981.72;5110423;27;24549;-72
2022/11/22 04:29:16;;;;;;;5.50;1.55;;;;;;;3.57;100.00;93980.09;5108264;27;24801;-72
2022/11/22 04:34:27;;;;;;;2.20;1.50;;;;;;;3.54;100.00;93976.00;5112667;27;24436;-72
2022/11/22 04:36:54;;;;;;;3.70;1.73;;;;;;;3.49;100.00;93978.03;5124991;27;24426;-72
2022/11/22 04:39:21;;;;;;;3.93;1.60;;;;;;;3.53;100.00;93976.09;5114315;27;24441;-72
2022/11/22 04:44:39;;;;;;;5.50;1.70;;;;;;;3.48;100.00;93981.50;5124283;27;24432;-73
2022/11/22 04:44:41;;;;;;;3.45;1.52;;;;;;;3.48;100.00;93986.59;5107139;27;24470;-72
2022/11/22 04:47:08;;;;;;;4.97;2.42;;;;;;;3.39;100.00;93987.22;5118272;27;24987;-72
2022/11/22 04:49:34;;;;;;;7.63;2.30;;;;;;;3.32;100.00;93985.94;5123800;27;24477;-72
2022/11/22 04:54:45;;;;;;;2.20;1.60;;;;;;;3.47;100.00;93982.41;5100677;27;24526;-72
2022/11/22 04:57:13;;;;;;;7.20;1.85;;;;;;;3.50;100.00;93991.66;5114539;27;24932;-72
2022/11/22 04:59:40;;;;;;;8.30;1.88;;;;;;;3.50;100.00;93994.22;5125533;27;24440;-72
2022/11/22 05:02:06;;;;;;;22.30;2.83;;;;;;;3.32;100.00;93994.44;5103925;27;24433;-73
2022/11/22 05:04:33;;;;;;;38.13;2.08;;;;;;;3.32;100.00;93994.44;5122244;27;24440;-72
2022/11/22 05:06:59;;;;;;;49.72;2.72;;;;;;;3.30;100.00;94003.13;5112567;27;24459;-72
2022/11/22 05:09:26;;;;;;;31.63;2.60;;;;;;;3.31;100.00;93999.66;5119306;27;24440;-72
2022/11/22 05:11:52;;;;;;;53.23;2.80;;;;;;;3.21;100.00;93996.84;5112132;27;24434;-73
2022/11/22 05:14:20;;;;;;;36.13;2.03;;;;;;;3.24;100.00;93993.28;5112889;27;24441;-73
2022/11/22 05:16:47;;;;;;;16.95;1.98;;;;;;;3.33;100.00;93990.13;5115721;27;24432;-73
2022/11/22 05:19:13;;;;;;;34.88;2.42;;;;;;;3.37;100.00;93983.91;5109805;27;24434;-73
2022/11/22 05:21:40;;;;;;;18.85;1.50;;;;;;;3.46;100.00;93992.75;5103237;27;24446;-73
2022/11/22 05:24:06;;;;;;;10.45;1.17;;;;;;;3.50;100.00;93983.97;5102320;27;25005;-73
2022/11/22 05:26:34;;;;;;;8.90;0.95;;;;;;;3.46;100.00;93992.75;5115710;27;24440;-73
2022/11/22 05:29:04;;;;;;;6.25;1.25;;;;;;;3.41;100.00;93995.59;5114213;27;25111;-72
2022/11/22 05:31:33;;;;;;;2.42;1.88;;;;;;;3.36;100.00;93993.31;5110693;27;24453;-72
2022/11/22 05:34:00;;;;;;;5.57;1.75;;;;;;;3.37;100.00;94001.81;5096973;27;24537;-72
2022/11/22 05:36:27;;;;;;;5.20;1.60;;;;;;;3.20;100.00;94002.91;5114949;27;24519;-72
2022/11/22 05:38:54;;;;;;;3.10;1.90;;;;;;;3.24;100.00;93994.09;5121948;27;24440;-72
2022/11/22 05:41:21;;;;;;;3.13;1.92;;;;;;;3.32;100.00;93991.06;5117557;27;24441;-72
2022/11/22 05:43:47;;;;;;;3.40;1.75;;;;;;;3.35;100.00;93996.00;5111388;27;24440;-73
2022/11/22 05:46:16;;;;;;;3.78;1.88;;;;;;;3.27;100.00;94000.78;5114847;27;25007;-73
2022/11/22 05:48:46;;;;;;;3.63;1.80;;;;;;;3.30;100.00;93995.44;5113905;27;24820;-71
2022/11/22 05:51:14;;;;;;;5.10;2.00;;;;;;;3.37;100.00;93989.88;5111207;27;24440;-72
2022/11/22 05:53:42;;;;;;;4.87;1.77;;;;;;;3.40;100.00;93997.31;5097916;27;24441;-72
2022/11/22 05:56:09;;;;;;;4.40;1.60;;;;;;;3.39;100.00;94007.69;5107069;27;25046;-72
2022/11/22 05:58:35;;;;;;;6.57;1.63;;;;;;;3.38;100.00;94003.47;5113767;27;24434;-72
2022/11/22 06:01:04;;;;;;;3.65;1.52;;;;;;;3.28;100.00;94005.78;5109878;27;24456;-72
2022/11/22 06:03:30;;;;;;;6.55;2.40;;;;;;;3.13;100.00;94002.44;5104749;27;24440;-71
2022/11/22 06:05:58;;;;;;;5.30;3.03;;;;;;;3.12;100.00;94016.16;5121399;27;24787;-71
2022/11/22 06:08:26;;;;;;;10.15;6.55;;;;;;;3.08;100.00;94014.72;5106736;27;24453;-71
2022/11/22 06:10:52;;;;;;;11.07;6.40;;;;;;;3.15;100.00;94017.69;5102314;27;25021;-72
2022/11/22 06:13:19;;;;;;;10.30;5.93;;;;;;;3.18;100.00;94029.47;5113409;27;24445;-71
2022/11/22 06:15:45;;;;;;;9.50;5.07;;;;;;;3.09;100.00;94021.47;5115185;27;24440;-71
2022/11/22 06:18:12;;;;;;;7.45;4.43;;;;;;;2.96;100.00;94025.66;5113270;27;24990;-71
2022/11/22 06:20:38;;;;;;;7.28;4.20;;;;;;;3.05;100.00;94031.97;5109609;27;24437;-71
2022/11/22 06:23:06;;;;;;;4.40;3.08;;;;;;;3.04;100.00;94036.28;5112275;27;24505;-71
2022/11/22 06:25:33;;;;;;;4.68;2.92;;;;;;;3.06;100.00;94041.28;5113976;27;24429;-71
2022/11/22 06:28:00;;;;;;;8.43;2.37;;;;;;;2.94;100.00;94047.97;5108256;27;24446;-72
2022/11/22 06:30:26;;;;;;;4.93;2.55;;;;;;;3.04;100.00;94053.34;5097436;27;24437;-72
2022/11/22 06:32:53;;;;;;;4.90;2.13;;;;;;;3.12;100.00;94057.09;5112272;27;24443;-72
2022/11/22 06:35:19;;;;;;;5.47;2.28;;;;;;;3.19;100.00;94056.69;5110390;27;24440;-72
2022/11/22 06:37:46;;;;;;;4.28;1.90;;;;;;;3.09;100.00;94067.50;5118789;27;24456;-71
2022/11/22 06:40:15;;;;;;;3.17;1.90;;;;;;;3.16;100.00;94073.06;5103059;27;24442;-72
2022/11/22 06:42:42;;;;;;;3.88;1.90;;;;;;;3.11;100.00;94073.31;5112789;27;24963;-72
2022/11/22 06:45:09;;;;;;;3.05;1.70;;;;;;;3.12;100.00;94085.22;5116962;27;24444;-73
2022/11/22 06:47:35;;;;;;;5.55;1.98;;;;;;;3.13;100.00;94075.81;5107958;27;24453;-71
2022/11/22 06:50:02;;;;;;;6.97;2.15;;;;;;;3.07;100.00;94084.66;5118123;27;24429;-72
2022/11/22 06:52:28;;;;;;;4.38;1.90;;;;;;;3.01;100.00;94092.72;5117510;27;24433;-72
2022/11/22 06:54:55;;;;;;;4.63;2.20;;;;;;;3.09;100.00;94098.19;5112333;27;24425;-75
2022/11/22 06:57:23;;;;;;;4.20;1.70;;;;;;;3.12;100.00;94103.13;5115553;27;24440;-72
2022/11/22 06:59:49;;;;;;;3.92;1.75;;;;;;;3.10;100.00;94102.38;5107541;27;24433;-72
2022/11/22 07:02:16;;;;;;;4.70;2.38;;;;;;;3.08;100.00;94105.97;5118788;27;24441;-72
2022/11/22 07:04:42;;;;;;;6.57;2.50;;;;;;;3.18;100.00;94108.78;5126179;27;24433;-72
2022/11/22 07:07:09;;;;;;;6.30;1.80;;;;;;;3.06;100.00;94111.16;5121935;27;24537;-73
2022/11/22 07:09:37;;;;;;;5.43;2.17;;;;;;;3.09;100.00;94115.28;5128061;27;24799;-72
2022/11/22 07:12:03;;;;;;;5.00;2.67;;;;;;;3.05;100.00;94114.63;5117634;27;24442;-71
2022/11/22 07:14:31;;;;;;;9.07;4.20;;;;;;;3.10;100.00;94109.25;5107316;27;24433;-71
2022/11/22 07:16:58;;;;;;;7.22;2.85;;;;;;;3.19;100.00;94121.50;5120870;27;24520;-71
2022/11/22 07:19:24;;;;;;;7.30;3.20;;;;;;;3.23;100.00;94120.38;5126847;27;24437;-71
2022/11/22 07:21:51;;;;;;;9.55;3.20;;;;;;;3.30;100.00;94120.81;5123377;27;24534;-72
2022/11/22 07:24:17;;;;;;;6.10;2.88;;;;;;;3.33;100.00;94126.56;5114362;27;24804;-71
2022/11/22 07:26:44;;;;;;;6.15;2.65;;;;;;;3.35;100.00;94123.94;5120517;27;24435;-72
2022/11/22 07:29:10;;;;;;;7.75;2.80;;;;;;;3.37;100.00;94135.72;5121854;27;24454;-71
2022/11/22 07:31:38;;;;;;;9.35;3.20;;;;;;;3.40;100.00;94132.97;5123289;27;24433;-72
2022/11/22 07:34:05;;;;;;;7.25;3.45;;;;;;;3.28;100.00;94131.16;5123625;27;24437;-71
2022/11/22 07:36:31;;;;;;;9.75;4.97;;;;;;;3.33;100.00;94144.47;5119812;27;24437;-71
2022/11/22 07:38:58;;;;;;;9.77;4.85;;;;;;;3.30;100.00;94138.72;5115914;27;24535;-71
2022/11/22 07:41:24;;;;;;;17.02;4.07;;;;;;;3.55;100.00;94146.56;5118139;27;25046;-72
2022/11/22 07:43:51;;;;;;;14.98;4.55;;;;;;;3.52;100.00;94141.66;5122709;27;24433;-71
2022/11/22 07:46:23;;;;;;;7.90;4.20;;;;;;;3.55;100.00;94151.69;5117063;27;24483;-71
2022/11/22 07:48:51;;;;;;;14.32;6.90;;;;;;;3.48;100.00;94160.66;5115839;27;25045;-70
2022/11/22 07:51:18;;;;;;;16.58;7.93;;;;;;;3.41;100.00;94161.94;5119159;27;24441;-71
2022/11/22 07:53:44;;;;;;;12.88;6.85;;;;;;;3.32;100.00;94163.31;5116656;27;24456;-71
2022/11/22 07:56:11;;;;;;;12.48;6.82;;;;;;;3.24;100.00;94170.63;5124749;27;24994;-71
2022/11/22 07:58:37;;;;;;;18.25;7.32;;;;;;;3.33;100.00;94164.13;5124144;27;24425;-71
2022/11/22 08:01:06;;;;;;;12.32;5.22;;;;;;;3.29;100.00;94183.16;5118087;27;24441;-71
2022/11/22 08:03:33;;;;;;;9.05;5.30;;;;;;;3.37;100.00;94176.69;5120296;27;24432;-71
2022/11/22 08:06:01;;;;;;;11.40;5.07;;;;;;;3.32;100.00;94170.19;5102747;27;24441;-71
2022/11/22 08:08:28;;;;;;;10.70;5.47;;;;;;;3.44;100.00;94174.53;5110288;27;25003;-73
2022/11/22 08:10:55;;;;;;;12.63;5.28;;;;;;;3.50;100.00;94174.19;5108069;27;24519;-71
2022/11/22 08:13:22;;;;;;;10.10;5.50;;;;;;;3.50;100.00;94183.59;5109023;27;24440;-71
2022/11/22 08:15:49;;;;;;;11.13;4.45;;;;;;;3.47;100.00;94179.47;5119732;27;24425;-71
2022/11/22 08:18:16;;;;;;;8.98;3.50;;;;;;;3.47;100.00;94186.34;5109653;27;25026;-71
2022/11/22 08:20:42;;;;;;;12.50;2.40;;;;;;;3.48;100.00;94180.31;5121828;27;24437;-71
2022/11/22 08:23:10;;;;;;;6.80;2.50;;;;;;;3.47;100.00;94179.47;5119637;27;24444;-71
2022/11/22 08:25:37;;;;;;;6.30;2.80;;;;;;;3.51;100.00;94173.25;5124855;27;24795;-71
2022/11/22 08:28:03;;;;;;;7.32;3.83;;;;;;;3.52;100.00;94179.19;5111033;27;24472;-71
2022/11/22 08:30:30;;;;;;;6.28;3.00;;;;;;;3.57;100.00;94170.34;5104095;27;24443;-71
2022/11/22 08:32:57;;;;;;;13.10;2.90;;;;;;;3.55;100.00;94169.59;5115154;27;24455;-73
2022/11/22 08:35:23;;;;;;;4.57;2.10;;;;;;;3.61;100.00;94176.09;5114492;27;25010;-72
2022/11/22 08:37:50;;;;;;;9.32;2.20;;;;;;;3.64;100.00;94169.06;5109978;27;25033;-74
2022/11/22 08:40:18;;;;;;;7.10;2.60;;;;;;;3.71;100.00;94171.22;5114718;27;24488;-71
2022/11/22 08:42:44;;;;;;;9.05;3.28;;;;;;;3.67;100.00;94164.66;5111705;27;25012;-71
2022/11/22 08:45:11;;;;;;;5.57;2.50;;;;;;;3.71;100.00;94158.41;5110615;27;24440;-70
2022/11/22 08:47:37;;;;;;;5.40;2.85;;;;;;;3.71;100.00;94156.69;5094009;27;24437;-71
2022/11/22 08:50:05;;;;;;;7.38;3.10;;;;;;;3.73;100.00;94154.84;5103715;27;24433;-71
2022/11/22 08:52:31;;;;;;;8.35;2.63;;;;;;;3.72;100.00;94152.41;5103394;27;24799;-71
2022/11/22 08:54:58;;;;;;;6.78;2.80;;;;;;;3.75;100.00;94150.47;5111726;27;24434;-71
2022/11/22 08:57:25;;;;;;;10.38;2.50;;;;;;;3.73;100.00;94144.59;5117078;27;24444;-71
2022/11/22 08:59:52;;;;;;;5.00;2.10;;;;;;;3.82;100.00;94143.22;5116319;27;25006;-71
2022/11/22 09:02:18;;;;;;;6.25;2.47;;;;;;;3.88;100.00;94141.09;5114013;27;24430;-71
2022/11/22 09:04:45;;;;;;;8.20;2.90;;;;;;;3.90;100.00;94148.69;5113278;27;24436;-71
2022/11/22 09:07:11;;;;;;;5.45;2.25;;;;;;;3.86;100.00;94145.50;5111786;27;24430;-71
2022/11/22 09:09:38;;;;;;;8.77;2.90;;;;;;;3.85;100.00;94141.28;5121199;27;24445;-71
2022/11/22 09:12:05;;;;;;;5.80;2.47;;;;;;;3.95;100.00;94141.53;5112999;27;24480;-71
2022/11/22 09:14:33;;;;;;;7.82;2.47;;;;;;;3.96;100.00;94142.34;5115547;27;24990;-71
2022/11/22 09:17:00;;;;;;;9.30;2.40;;;;;;;3.96;100.00;94140.59;5111997;27;24441;-71
2022/11/22 09:19:26;;;;;;;7.77;2.50;;;;;;;4.03;100.00;94138.47;5120788;27;24783;-71
2022/11/22 09:21:53;;;;;;;6.50;2.20;;;;;;;4.03;100.00;94135.94;5118961;27;24444;-71
2022/11/22 09:24:19;;;;;;;4.90;2.28;;;;;;;4.00;100.00;94136.13;5114742;27;24436;-71
2022/11/22 09:26:46;;;;;;;5.13;1.90;;;;;;;4.01;100.00;94145.47;5116272;27;24440;-71
2022/11/22 09:29:13;;;;;;;9.00;2.00;;;;;;;4.01;100.00;94142.91;5117052;27;24966;-71
2022/11/22 09:31:41;;;;;;;7.53;3.67;;;;;;;4.05;100.00;94149.47;5111819;27;24514;-71
2022/11/22 09:34:07;;;;;;;8.38;3.53;;;;;;;4.15;100.00;94154.81;5115370;27;24436;-71
2022/11/22 09:36:34;;;;;;;7.85;4.00;;;;;;;4.17;100.00;94158.13;5108898;28;24430;-71
2022/11/22 09:39:00;;;;;;;7.72;2.92;;;;;;;4.19;100.00;94164.78;5109904;27;24434;-71
2022/11/22 09:41:56;;;;;;;5.93;3.30;;;;;;;4.18;100.00;94170.81;5103728;27;24444;-71
2022/11/22 09:44:31;;;;;;;10.98;3.08;;;;;;;4.28;100.00;94176.19;5113624;27;24434;-71
2022/11/22 09:47:07;;;;;;;4.45;2.38;;;;;;;4.31;100.00;94173.44;5113994;27;24978;-71
2022/11/22 09:49:47;;;;;;;9.48;2.88;;;;;;;4.35;100.00;94180.00;5101327;27;24461;-71
2022/11/22 09:52:20;;;;;;;11.35;3.90;;;;;;;4.41;100.00;94181.34;5117982;27;24433;-71
2022/11/22 09:54:52;;;;;;;8.10;3.80;;;;;;;4.45;100.00;94177.66;5112716;27;24441;-71
2022/11/22 09:57:24;;;;;;;8.07;4.07;;;;;;;4.46;100.00;94185.28;5119880;27;24437;-71
2022/11/22 09:59:58;;;;;;;7.60;3.38;;;;;;;4.47;100.00;94186.91;5103597;27;24434;-71
2022/11/22 10:02:33;;;;;;;6.32;3.35;;;;;;;4.64;100.00;94197.84;5116934;27;24449;-71
2022/11/22 10:05:03;;;;;;;10.50;3.83;;;;;;;4.63;100.00;94202.13;5101132;27;24433;-71
2022/11/22 10:07:35;;;;;;;5.00;3.00;;;;;;;4.67;100.00;94198.44;5109519;27;24436;-71
2022/11/22 10:10:05;;;;;;;5.47;2.90;;;;;;;4.68;100.00;94200.09;5103386;27;24450;-71
2022/11/22 10:12:40;;;;;;;9.43;3.90;;;;;;;4.77;100.00;94196.91;5108864;27;24491;-71
2022/11/22 10:15:15;;;;;;;8.18;3.25;;;;;;;4.79;100.00;94197.66;5107966;27;24445;-71
2022/11/22 10:17:52;;;;;;;7.47;2.45;;;;;;;4.85;100.00;94212.63;5115589;27;24429;-72
2022/11/22 10:20:20;;;;;;;7.43;2.33;;;;;;;4.78;100.00;94211.41;5102958;27;24446;-71
2022/11/22 10:22:49;;;;;;;4.50;2.05;;;;;;;4.79;100.00;94213.03;5115958;27;25044;-71
2022/11/22 10:25:18;;;;;;;5.50;1.90;;;;;;;4.92;100.00;94214.81;5101996;27;24461;-72
2022/11/22 10:27:48;;;;;;;5.15;1.90;;;;;;;4.92;100.00;94217.38;5115730;27;24999;-71
2022/11/22 10:30:18;;;;;;;5.47;1.87;;;;;;;4.90;100.00;94225.19;5118761;27;24861;-71
2022/11/22 10:32:58;;;;;;;8.57;1.95;;;;;;;4.92;100.00;94220.75;5114065;27;24525;-72
2022/11/22 10:35:36;;;;;;;5.20;1.60;;;;;;;4.95;100.00;94220.56;5122787;27;24437;-71
2022/11/22 10:38:20;;;;;;;4.45;2.00;;;;;;;5.02;100.00;94224.34;5109180;27;24433;-71
2022/11/22 10:40:57;;;;;;;5.97;1.70;;;;;;;5.02;100.00;94233.81;5099696;27;24799;-72
2022/11/22 10:43:34;;;;;;;5.28;2.10;;;;;;;5.03;100.00;94233.69;5118611;27;24430;-71
2022/11/22 10:46:09;;;;;;;5.75;2.60;;;;;;;5.06;100.00;94220.66;5114720;27;24434;-71
2022/11/22 10:48:42;;;;;;;4.85;2.25;;;;;;;5.22;100.00;94220.47;5111311;27;25013;-72
2022/11/22 10:51:17;;;;;;;9.60;2.15;;;;;;;5.17;100.00;94227.66;5116195;27;24445;-71
2022/11/22 10:53:54;;;;;;;5.70;2.38;;;;;;;5.16;100.00;94218.31;5107531;28;24807;-71
2022/11/22 10:56:30;;;;;;;5.90;2.10;;;;;;;5.22;100.00;94215.34;5119138;28;24994;-72
2022/11/22 10:59:05;;;;;;;6.53;1.73;;;;;;;5.35;100.00;94215.34;5118975;28;24432;-71
2022/11/22 11:01:41;;;;;;;6.97;1.83;;;;;;;5.33;100.00;94214.63;5105503;28;24464;-71
2022/11/22 11:04:11;;;;;;;5.15;1.98;;;;;;;5.33;100.00;94212.06;5116069;28;24449;-72
2022/11/22 11:06:42;;;;;;;5.47;1.80;;;;;;;5.33;100.00;94205.16;5112234;28;24466;-72
2022/11/22 11:09:13;;;;;;;8.68;2.38;;;;;;;5.42;100.00;94213.19;5116528;28;24457;-72
2022/11/22 11:11:42;;;;;;;11.00;1.95;;;;;;;5.28;100.00;94203.84;5103408;28;24449;-72
2022/11/22 11:14:25;;;;;;;4.90;1.83;;;;;;;5.27;100.00;94213.31;5107798;28;24425;-72
2022/11/22 11:16:52;;;;;;;8.33;2.33;;;;;;;5.28;100.00;94209.81;5120563;28;25015;-72
2022/11/22 11:19:23;;;;;;;6.88;2.20;;;;;;;5.32;100.00;94213.81;5101588;27;24426;-72
2022/11/22 11:21:57;;;;;;;5.25;2.10;;;;;;;5.31;100.00;94208.78;5111171;28;24433;-70
2022/11/22 11:24:27;;;;;;;9.17;2.30;;;;;;;5.29;100.00;94208.88;5116509;28;24540;-70
2022/11/22 11:26:55;;;;;;;5.28;1.90;;;;;;;5.29;100.00;94210.63;5106524;28;24432;-70
2022/11/22 11:29:36;;;;;;;4.65;2.20;;;;;;;5.23;100.00;94203.34;5118390;28;24544;-71
2022/11/22 11:32:09;;;;;;;8.25;3.08;;;;;;;5.22;100.00;94193.97;5117359;27;24473;-70
2022/11/22 11:34:40;;;;;;;8.73;2.35;;;;;;;5.23;100.00;94193.09;5110006;28;24433;-70
2022/11/22 11:37:18;;;;;;;7.10;2.23;;;;;;;5.20;100.00;94190.72;5116177;28;24452;-70
2022/11/22 11:39:46;;;;;;;6.38;2.05;;;;;;;5.21;100.00;94192.34;5115733;27;24455;-70
2022/11/22 11:42:23;;;;;;;7.43;1.83;;;;;;;5.22;100.00;94187.09;5115020;27;24972;-71
2022/11/22 11:44:50;;;;;;;7.13;1.83;;;;;;;5.32;100.00;94190.69;5124066;27;24494;-71
2022/11/22 11:47:18;;;;;;;8.15;2.33;;;;;;;5.20;100.00;94183.84;5110036;27;24456;-71